Time;durP1;ratioP1;P1;durP2;ratioP2;P2;SDS_P1;SDS_P2;PMS_P1;PMS_P2;Temp;Humidity;BMP_temperature;BMP_pressure;BME280_temperature;BME280_humidity;BME280_pressure;Samples;Min_cycle;Max_cycle;Signal;HPM_P1;HPM_P2
2023/01/12 00:02:13;;;;;;;3.93;0.93;;;11.00;99.90;;;;;;5070641;28;20204;-62
2023/01/12 00:04:39;;;;;;;10.90;1.57;;;11.10;99.90;;;;;;5070430;28;20661;-62
2023/01/12 00:07:06;;;;;;;9.37;1.20;;;11.10;99.90;;;;;;5070416;28;20176;-63
2023/01/12 00:09:32;;;;;;;5.20;1.27;;;11.10;99.90;;;;;;5070645;28;20423;-63
2023/01/12 00:11:58;;;;;;;7.73;0.83;;;11.20;99.90;;;;;;5070358;28;20607;-63
2023/01/12 00:14:23;;;;;;;6.00;0.90;;;11.20;99.90;;;;;;5070423;28;20284;-63
2023/01/12 00:16:49;;;;;;;6.70;1.27;;;11.20;99.90;;;;;;5070354;28;20638;-63
2023/01/12 00:19:17;;;;;;;9.00;1.30;;;11.10;99.90;;;;;;5070423;28;20195;-63
2023/01/12 00:24:31;;;;;;;6.40;1.50;;;11.20;99.90;;;;;;5070448;28;20165;-63
2023/01/12 00:26:58;;;;;;;10.53;1.50;;;11.10;99.90;;;;;;5070397;28;20274;-63
2023/01/12 00:29:25;;;;;;;7.77;1.63;;;11.10;99.90;;;;;;5070294;28;20164;-62
2023/01/12 00:31:55;;;;;;;6.80;0.90;;;11.10;99.90;;;;;;5070280;28;20661;-62
2023/01/12 00:34:21;;;;;;;7.03;0.97;;;11.20;99.90;;;;;;5070345;28;20562;-63
2023/01/12 00:36:47;;;;;;;10.10;1.27;;;11.10;99.90;;;;;;5072750;28;20176;-62
2023/01/12 00:39:13;;;;;;;6.53;1.17;;;11.10;99.90;;;;;;5056631;28;20517;-63
2023/01/12 00:47:09;;;;;;;5.57;0.70;;;11.20;99.90;;;;;;5061789;28;20231;-64
2023/01/12 00:49:37;;;;;;;6.23;0.83;;;11.20;99.90;;;;;;5069491;28;20191;-63
2023/01/12 00:52:04;;;;;;;6.43;0.60;;;11.20;99.90;;;;;;5073962;28;20172;-59
2023/01/12 00:54:31;;;;;;;4.63;1.10;;;11.20;99.90;;;;;;5073977;28;20229;-63
2023/01/12 00:56:56;;;;;;;1.77;0.63;;;11.20;99.90;;;;;;5073798;28;20263;-62
2023/01/12 00:59:22;;;;;;;7.43;0.80;;;11.20;99.90;;;;;;5073296;28;20215;-62
2023/01/12 01:01:48;;;;;;;3.40;0.50;;;;;;;;;;5073566;28;20185;-62
2023/01/12 01:04:14;;;;;;;1.43;0.40;;;11.20;99.90;;;;;;5073553;28;20226;-62
2023/01/12 01:06:40;;;;;;;2.03;0.73;;;11.30;99.90;;;;;;5073472;28;20250;-62
2023/01/12 01:09:05;;;;;;;1.70;0.60;;;11.30;99.90;;;;;;5073329;28;20333;-62
2023/01/12 01:11:31;;;;;;;4.20;0.73;;;11.30;99.90;;;;;;5073506;28;20176;-62
2023/01/12 01:13:58;;;;;;;2.57;0.73;;;11.30;99.90;;;;;;5073737;28;20690;-56
2023/01/12 01:16:24;;;;;;;2.47;0.37;;;10.60;99.90;;;;;;5073373;28;20358;-61
2023/01/12 01:18:50;;;;;;;2.40;0.47;;;11.40;99.90;;;;;;5073694;28;20172;-61
2023/01/12 01:21:17;;;;;;;2.40;0.43;;;11.40;99.90;;;;;;5071464;28;20223;-61
2023/01/12 01:23:43;;;;;;;2.17;0.40;;;11.40;99.90;;;;;;5053620;28;20173;-61
2023/01/12 01:26:15;;;;;;;4.43;0.60;;;11.40;99.90;;;;;;5035509;28;20173;-61
2023/01/12 01:28:41;;;;;;;5.10;1.00;;;11.40;99.90;;;;;;5065111;28;20187;-61
2023/01/12 01:31:12;;;;;;;2.03;0.30;;;11.50;99.90;;;;;;5073415;28;20474;-61
2023/01/12 01:33:39;;;;;;;3.00;0.30;;;11.50;99.90;;;;;;5073313;28;20862;-61
2023/01/12 01:36:05;;;;;;;6.43;1.10;;;;;;;;;;5065421;28;20639;-61
2023/01/12 01:38:31;;;;;;;8.87;0.80;;;11.10;99.90;;;;;;5073239;28;20264;-61
2023/01/12 01:40:57;;;;;;;6.20;0.70;;;11.50;99.90;;;;;;5073050;28;20208;-61
2023/01/12 01:43:26;;;;;;;3.60;0.60;;;11.50;99.90;;;;;;5072762;28;20176;-61
2023/01/12 01:46:08;;;;;;;2.77;0.60;;;11.50;99.90;;;;;;5073090;28;20176;-61
2023/01/12 01:48:38;;;;;;;6.63;0.70;;;11.50;99.90;;;;;;5072737;28;20172;-61
2023/01/12 01:51:11;;;;;;;3.53;0.60;;;11.40;99.90;;;;;;5073030;28;20179;-61
2023/01/12 01:53:40;;;;;;;6.73;0.80;;;11.50;99.90;;;;;;5072750;28;20259;-61
2023/01/12 01:56:37;;;;;;;3.07;0.47;;;11.40;99.90;;;;;;5070935;28;20169;-61
2023/01/12 01:59:11;;;;;;;3.30;0.70;;;11.50;99.90;;;;;;5067514;28;20176;-61
2023/01/12 02:01:37;;;;;;;2.67;0.70;;;11.40;99.90;;;;;;5052748;28;20220;-61
2023/01/12 02:04:04;;;;;;;2.40;0.20;;;11.40;99.90;;;;;;5063714;28;20191;-62
2023/01/12 02:06:30;;;;;;;3.57;0.73;;;11.30;99.90;;;;;;5072151;28;20588;-62
2023/01/12 02:09:20;;;;;;;5.67;1.07;;;11.40;99.90;;;;;;5072214;28;20627;-61
2023/01/12 02:17:32;;;;;;;2.73;0.50;;;11.40;99.90;;;;;;5072378;28;20226;-61
2023/01/12 02:20:13;;;;;;;5.60;0.60;;;11.40;99.90;;;;;;5072118;28;20246;-61
2023/01/12 02:23:11;;;;;;;3.20;0.60;;;11.40;99.90;;;;;;5072390;28;20267;-61
2023/01/12 02:25:58;;;;;;;9.20;0.80;;;11.40;99.90;;;;;;5054803;28;20185;-62
2023/01/12 02:28:23;;;;;;;4.10;0.50;;;11.40;99.90;;;;;;5072325;28;20242;-62
2023/01/12 02:31:26;;;;;;;5.97;0.63;;;11.40;99.90;;;;;;5064439;28;20200;-61
2023/01/12 02:34:08;;;;;;;6.13;0.80;;;11.40;99.90;;;;;;5054115;28;20179;-61
2023/01/12 02:36:44;;;;;;;5.40;0.83;;;11.40;99.90;;;;;;5070873;28;20176;-62
2023/01/12 02:39:23;;;;;;;3.97;0.50;;;11.80;99.90;;;;;;5072127;28;20622;-62
2023/01/12 02:44:55;;;;;;;5.63;0.50;;;11.40;99.90;;;;;;5071991;28;20176;-62
2023/01/12 02:47:33;;;;;;;3.00;0.67;;;11.40;99.90;;;;;;5071854;28;20204;-61
2023/01/12 02:50:00;;;;;;;8.90;0.77;;;11.10;99.90;;;;;;5071808;28;20168;-61
2023/01/12 02:52:30;;;;;;;6.10;0.70;;;11.40;99.90;;;;;;5071894;28;20181;-62
2023/01/12 02:54:57;;;;;;;4.13;0.70;;;11.40;99.90;;;;;;5071726;28;20179;-61
2023/01/12 02:57:25;;;;;;;6.37;0.63;;;11.40;99.90;;;;;;5071773;28;20165;-61
2023/01/12 02:59:52;;;;;;;8.60;1.00;;;11.40;99.90;;;;;;5070651;28;20196;-60
2023/01/12 03:02:21;;;;;;;6.10;0.70;;;11.40;99.90;;;;;;5071064;28;20180;-61
2023/01/12 03:04:47;;;;;;;4.57;0.70;;;11.40;99.90;;;;;;5071446;28;20230;-61
2023/01/12 03:07:33;;;;;;;10.70;0.83;;;11.50;99.90;;;;;;5071093;28;20181;-61
2023/01/12 03:10:11;;;;;;;4.80;0.80;;;11.40;99.90;;;;;;5055866;28;20179;-61
2023/01/12 03:12:39;;;;;;;7.67;0.87;;;11.40;99.90;;;;;;5070907;28;20172;-61
2023/01/12 03:15:08;;;;;;;10.10;0.87;;;11.40;99.90;;;;;;5070862;28;20185;-60
2023/01/12 03:17:45;;;;;;;5.30;0.90;;;11.40;99.90;;;;;;5071043;28;20212;-61
2023/01/12 03:20:27;;;;;;;11.17;1.43;;;11.40;99.90;;;;;;5067207;28;20241;-61
2023/01/12 03:23:00;;;;;;;6.50;0.80;;;11.40;99.90;;;;;;5071030;28;20180;-62
2023/01/12 03:25:27;;;;;;;8.63;1.53;;;11.40;99.90;;;;;;5062931;28;20208;-62
2023/01/12 03:27:56;;;;;;;8.10;1.03;;;11.40;99.90;;;;;;5070978;28;20172;-62
2023/01/12 03:30:27;;;;;;;8.30;1.00;;;11.40;99.90;;;;;;5071071;28;20169;-62
2023/01/12 03:32:53;;;;;;;6.80;1.13;;;11.30;99.90;;;;;;5070951;28;20252;-61
2023/01/12 03:35:24;;;;;;;4.70;0.83;;;11.30;99.90;;;;;;5070845;28;20259;-62
2023/01/12 03:38:00;;;;;;;9.30;1.10;;;11.40;99.90;;;;;;5070988;28;20213;-62
2023/01/12 03:40:42;;;;;;;9.70;1.03;;;11.40;99.90;;;;;;5070696;28;20212;-62
2023/01/12 03:43:12;;;;;;;7.10;1.30;;;11.40;99.90;;;;;;5070750;28;20263;-62
2023/01/12 03:45:48;;;;;;;5.20;0.57;;;11.40;99.90;;;;;;5070634;28;20172;-62
2023/01/12 03:48:26;;;;;;;3.73;0.50;;;11.50;99.90;;;;;;5070639;28;20171;-62
2023/01/12 03:50:58;;;;;;;11.00;1.00;;;11.40;99.90;;;;;;5070833;28;20203;-61
2023/01/12 03:53:25;;;;;;;5.67;0.90;;;11.50;99.90;;;;;;5070659;28;20169;-62
2023/01/12 03:55:55;;;;;;;6.00;0.80;;;11.50;99.90;;;;;;5070394;28;20655;-61
2023/01/12 03:58:23;;;;;;;7.23;1.00;;;11.40;99.90;;;;;;5067474;28;20201;-62
2023/01/12 04:00:48;;;;;;;7.10;1.07;;;11.30;99.90;;;;;;5069946;28;20199;-61
2023/01/12 04:03:15;;;;;;;9.57;0.90;;;11.50;99.90;;;;;;5070171;28;20272;-61
2023/01/12 04:05:42;;;;;;;5.90;0.80;;;11.50;99.90;;;;;;5070159;28;20208;-62
2023/01/12 04:08:08;;;;;;;6.67;0.60;;;11.50;99.90;;;;;;5069609;28;20261;-62
2023/01/12 04:10:34;;;;;;;4.63;0.90;;;11.50;99.90;;;;;;5068734;28;20187;-61
2023/01/12 04:13:00;;;;;;;8.40;1.10;;;;;;;;;;5069889;28;20172;-61
2023/01/12 04:15:26;;;;;;;3.33;0.67;;;11.50;99.90;;;;;;5069797;28;20643;-61
2023/01/12 04:17:52;;;;;;;15.63;1.23;;;11.50;99.90;;;;;;5069810;28;20291;-61
2023/01/12 04:20:18;;;;;;;6.10;1.13;;;11.50;99.90;;;;;;5057617;28;20353;-61
2023/01/12 04:22:44;;;;;;;5.93;0.90;;;11.40;99.90;;;;;;5062342;28;20610;-61
2023/01/12 04:25:18;;;;;;;8.77;1.13;;;11.40;99.90;;;;;;5058381;28;20208;-61
2023/01/12 04:27:47;;;;;;;3.13;0.40;;;11.30;99.90;;;;;;5062239;28;20184;-61
2023/01/12 04:30:15;;;;;;;4.17;0.57;;;11.40;99.90;;;;;;5069881;28;20184;-62
2023/01/12 04:32:42;;;;;;;9.97;1.07;;;11.40;99.90;;;;;;5069990;28;20177;-61
2023/01/12 04:35:10;;;;;;;7.47;0.83;;;11.40;99.90;;;;;;5069727;28;20176;-62
2023/01/12 04:37:36;;;;;;;5.77;0.70;;;11.60;99.90;;;;;;5051687;28;20569;-61
2023/01/12 04:40:02;;;;;;;5.80;0.40;;;11.50;99.90;;;;;;5070085;28;20215;-62
2023/01/12 04:45:12;;;;;;;6.30;0.80;;;11.40;99.90;;;;;;5069875;28;20259;-62
2023/01/12 04:47:38;;;;;;;6.53;0.80;;;11.50;99.90;;;;;;5069916;28;20192;-63
2023/01/12 04:50:04;;;;;;;3.40;0.30;;;11.50;99.90;;;;;;5070039;28;20165;-62
2023/01/12 04:52:29;;;;;;;4.27;0.67;;;11.50;99.90;;;;;;5069829;28;20177;-62
2023/01/12 04:54:55;;;;;;;5.10;0.60;;;11.60;99.90;;;;;;5069429;28;20179;-62
2023/01/12 04:57:21;;;;;;;4.73;0.83;;;11.60;99.90;;;;;;5069728;28;20200;-62
2023/01/12 04:59:46;;;;;;;4.60;0.33;;;11.70;99.90;;;;;;5069821;28;20197;-62
2023/01/12 05:02:12;;;;;;;4.77;0.63;;;11.60;99.90;;;;;;5070003;28;20187;-62
2023/01/12 05:04:38;;;;;;;5.90;0.70;;;11.60;99.90;;;;;;5069583;28;20187;-62
2023/01/12 05:07:03;;;;;;;8.23;0.87;;;11.60;99.90;;;;;;5069653;28;20181;-60
2023/01/12 05:12:13;;;;;;;9.03;0.93;;;;;;;;;;5057561;28;20191;-62
2023/01/12 05:14:39;;;;;;;11.43;1.13;;;11.60;99.90;;;;;;5064275;28;20173;-63
2023/01/12 05:17:04;;;;;;;9.67;0.80;;;11.60;99.90;;;;;;5066869;28;20556;-62
2023/01/12 05:19:30;;;;;;;9.77;1.53;;;11.60;99.90;;;;;;5068404;28;20640;-62
2023/01/12 05:21:56;;;;;;;8.20;0.80;;;11.60;99.90;;;;;;5068135;28;20206;-62
2023/01/12 05:24:21;;;;;;;6.10;0.70;;;11.60;99.90;;;;;;5072179;28;20207;-62
2023/01/12 05:26:47;;;;;;;9.27;0.83;;;11.60;99.90;;;;;;5073308;28;20643;-62
2023/01/12 05:29:12;;;;;;;4.73;0.77;;;11.60;99.90;;;;;;5073084;28;20181;-62
2023/01/12 05:31:39;;;;;;;8.97;1.07;;;11.60;99.90;;;;;;5073282;28;20164;-62
2023/01/12 05:34:04;;;;;;;7.43;0.80;;;11.60;99.90;;;;;;5073129;28;20218;-62
2023/01/12 05:36:30;;;;;;;8.33;0.90;;;11.60;99.90;;;;;;5073073;28;20172;-62
2023/01/12 05:38:55;;;;;;;9.63;1.83;;;11.60;99.90;;;;;;5073213;28;20168;-62
2023/01/12 05:41:21;;;;;;;6.00;0.60;;;11.60;99.90;;;;;;5072850;28;20204;-62
2023/01/12 05:43:50;;;;;;;7.33;1.33;;;11.60;99.90;;;;;;5073232;28;20169;-66
2023/01/12 05:46:21;;;;;;;4.90;0.70;;;11.60;99.90;;;;;;5073039;28;20218;-62
2023/01/12 05:48:48;;;;;;;7.40;0.83;;;11.60;99.90;;;;;;5073190;28;20276;-62
2023/01/12 05:51:14;;;;;;;7.03;1.10;;;11.60;99.90;;;;;;5072982;28;20177;-62
2023/01/12 05:53:41;;;;;;;4.77;0.57;;;11.70;99.90;;;;;;5072879;28;20631;-62
2023/01/12 05:56:07;;;;;;;8.87;0.83;;;11.60;99.90;;;;;;5054937;28;20177;-62
2023/01/12 05:58:33;;;;;;;7.13;1.07;;;11.60;99.90;;;;;;5072849;28;20639;-62
2023/01/12 06:00:59;;;;;;;10.17;1.43;;;11.60;99.90;;;;;;5072801;28;20223;-62
2023/01/12 06:03:24;;;;;;;9.50;1.17;;;11.60;99.90;;;;;;5052494;28;20185;-62
2023/01/12 06:05:54;;;;;;;12.60;1.13;;;11.60;99.90;;;;;;5072224;28;20181;-62
2023/01/12 06:08:21;;;;;;;8.40;1.00;;;11.60;99.90;;;;;;5072226;28;20180;-61
2023/01/12 06:10:47;;;;;;;12.73;1.27;;;11.80;99.90;;;;;;5046901;28;20200;-61
2023/01/12 06:16:03;;;;;;;7.80;1.10;;;11.60;99.90;;;;;;5071441;28;20210;-61
2023/01/12 06:18:33;;;;;;;14.60;1.20;;;11.70;99.90;;;;;;5071645;28;20199;-60
2023/01/12 06:20:59;;;;;;;14.43;0.80;;;11.70;99.90;;;;;;5072167;28;20214;-60
2023/01/12 06:23:24;;;;;;;6.47;0.80;;;11.70;99.90;;;;;;5072126;28;20538;-61
2023/01/12 06:25:50;;;;;;;7.10;1.27;;;11.50;99.90;;;;;;5071878;28;20649;-61
2023/01/12 06:28:16;;;;;;;5.73;0.80;;;11.70;99.90;;;;;;5071881;28;20226;-61
2023/01/12 06:30:41;;;;;;;15.93;1.80;;;11.70;99.90;;;;;;5072084;28;20234;-61
2023/01/12 06:33:07;;;;;;;5.40;0.80;;;11.70;99.90;;;;;;5071050;28;20177;-61
2023/01/12 06:35:33;;;;;;;6.07;0.70;;;12.20;99.90;;;;;;5071891;28;20176;-61
2023/01/12 06:37:59;;;;;;;8.83;1.40;;;11.60;99.90;;;;;;5071069;28;20169;-61
2023/01/12 06:40:24;;;;;;;9.40;1.27;;;11.60;99.90;;;;;;5071724;28;20561;-61
2023/01/12 06:42:50;;;;;;;2.93;0.53;;;11.70;99.90;;;;;;5071886;28;20173;-61
2023/01/12 06:45:16;;;;;;;6.33;0.60;;;11.30;99.90;;;;;;5072039;28;20168;-61
2023/01/12 06:47:46;;;;;;;7.93;1.67;;;11.50;99.90;;;;;;5071655;28;20230;-61
2023/01/12 06:50:12;;;;;;;4.07;0.87;;;11.50;99.90;;;;;;5071689;28;20599;-61
2023/01/12 06:52:37;;;;;;;2.13;0.40;;;11.50;99.90;;;;;;5071336;28;20180;-61
2023/01/12 06:55:03;;;;;;;5.37;0.73;;;11.50;99.90;;;;;;5071296;28;20177;-61
2023/01/12 06:57:29;;;;;;;3.30;0.90;;;11.50;99.90;;;;;;5071271;28;20173;-62
2023/01/12 06:59:55;;;;;;;8.93;1.17;;;11.50;99.90;;;;;;5071400;28;20697;-61
2023/01/12 07:02:21;;;;;;;5.23;1.10;;;11.50;99.90;;;;;;5071695;28;20592;-61
2023/01/12 07:04:47;;;;;;;2.87;0.60;;;11.50;99.90;;;;;;5065050;28;20173;-61
2023/01/12 07:07:12;;;;;;;6.20;0.83;;;11.50;99.90;;;;;;5070470;28;20179;-61
2023/01/12 07:09:38;;;;;;;5.50;0.87;;;11.50;99.90;;;;;;5069996;28;20185;-61
2023/01/12 07:12:04;;;;;;;2.77;0.80;;;11.60;99.90;;;;;;5070008;28;20669;-60
2023/01/12 07:14:30;;;;;;;4.20;0.57;;;11.70;99.90;;;;;;5068733;28;20180;-62
2023/01/12 07:16:55;;;;;;;8.13;0.90;;;11.60;99.90;;;;;;5070774;28;20227;-61
2023/01/12 07:19:21;;;;;;;3.30;0.63;;;11.60;99.90;;;;;;5070773;28;20271;-61
2023/01/12 07:21:50;;;;;;;4.80;0.63;;;11.60;99.90;;;;;;5070771;28;20306;-66
2023/01/12 07:24:16;;;;;;;5.20;0.80;;;11.60;99.90;;;;;;5070493;28;20165;-61
2023/01/12 07:26:42;;;;;;;6.87;1.00;;;11.60;99.90;;;;;;5069891;28;20263;-62
2023/01/12 07:29:10;;;;;;;8.37;1.00;;;11.60;99.90;;;;;;5070457;28;20208;-62
2023/01/12 07:31:35;;;;;;;6.43;0.70;;;11.60;99.90;;;;;;5070645;28;20237;-62
2023/01/12 07:34:01;;;;;;;3.73;0.50;;;11.50;99.90;;;;;;5071040;28;20666;-62
2023/01/12 07:36:27;;;;;;;4.23;0.80;;;11.50;99.90;;;;;;5070926;28;20172;-62
2023/01/12 07:38:52;;;;;;;4.40;0.50;;;11.50;99.90;;;;;;5070926;28;20203;-60
2023/01/12 07:44:02;;;;;;;6.90;0.70;;;11.50;99.90;;;;;;5070043;28;20708;-60
2023/01/12 07:46:28;;;;;;;4.40;0.87;;;11.50;99.90;;;;;;5070383;28;20190;-59
2023/01/12 07:48:53;;;;;;;4.07;0.60;;;11.60;99.90;;;;;;5072077;28;20222;-60
2023/01/12 07:51:19;;;;;;;2.00;0.40;;;11.50;99.90;;;;;;5070468;28;20616;-60
2023/01/12 07:53:46;;;;;;;3.07;0.60;;;11.60;99.90;;;;;;5070657;28;20167;-59
2023/01/12 07:56:14;;;;;;;4.20;0.67;;;11.60;99.90;;;;;;5070543;28;20180;-60
2023/01/12 07:58:50;;;;;;;3.53;0.77;;;11.60;99.90;;;;;;5069740;28;20647;-60
2023/01/12 08:01:15;;;;;;;4.17;0.73;;;11.60;99.90;;;;;;5067229;28;20204;-59
2023/01/12 08:03:41;;;;;;;3.73;0.53;;;11.60;99.90;;;;;;5068003;28;20195;-59
2023/01/12 08:06:07;;;;;;;2.57;0.30;;;11.50;99.90;;;;;;5058511;28;20453;-59
2023/01/12 08:08:33;;;;;;;1.27;0.30;;;11.60;99.90;;;;;;5051481;28;20714;-59
2023/01/12 08:11:07;;;;;;;3.97;0.40;;;11.60;99.90;;;;;;5070077;28;20173;-59
2023/01/12 08:13:33;;;;;;;6.57;0.63;;;11.60;99.90;;;;;;5070430;28;20175;-56
2023/01/12 08:16:05;;;;;;;2.13;0.40;;;11.50;99.90;;;;;;5070461;28;20176;-56
2023/01/12 08:18:42;;;;;;;3.13;0.40;;;11.60;99.90;;;;;;5070374;28;20219;-60
2023/01/12 08:21:12;;;;;;;5.20;0.40;;;11.60;99.90;;;;;;5070005;28;20239;-60
2023/01/12 08:23:43;;;;;;;3.97;0.40;;;11.60;99.90;;;;;;5070338;28;20255;-59
2023/01/12 08:26:15;;;;;;;3.10;0.60;;;11.60;99.90;;;;;;5070234;28;20175;-60
2023/01/12 08:28:48;;;;;;;3.50;0.70;;;11.60;99.90;;;;;;5070382;28;20169;-60
2023/01/12 08:31:17;;;;;;;3.47;0.50;;;11.60;99.90;;;;;;5069682;28;20251;-60
2023/01/12 08:33:43;;;;;;;4.37;0.20;;;11.60;99.90;;;;;;5070053;28;20181;-60
2023/01/12 08:36:13;;;;;;;5.63;0.60;;;11.50;99.90;;;;;;5070164;28;20168;-60
2023/01/12 08:38:39;;;;;;;3.90;0.30;;;11.40;99.90;;;;;;5070325;28;20203;-60
2023/01/12 08:44:01;;;;;;;3.17;0.60;;;11.60;99.90;;;;;;5070297;28;20226;-60
2023/01/12 08:46:31;;;;;;;1.30;0.53;;;11.60;99.90;;;;;;5069680;28;20221;-60
2023/01/12 08:48:57;;;;;;;4.23;0.40;;;11.60;99.90;;;;;;5066483;28;20206;-61
2023/01/12 08:51:23;;;;;;;2.77;0.40;;;11.50;99.90;;;;;;5069870;28;20600;-61
2023/01/12 08:53:48;;;;;;;1.43;0.50;;;11.60;99.90;;;;;;5069952;28;20172;-61
2023/01/12 08:56:14;;;;;;;0.80;0.23;;;11.60;99.90;;;;;;5064156;28;20253;-61
2023/01/12 08:58:40;;;;;;;2.43;0.60;;;11.70;99.90;;;;;;5071532;28;20172;-61
2023/01/12 09:01:10;;;;;;;2.70;0.57;;;11.70;99.90;;;;;;5073146;28;20663;-61
2023/01/12 09:03:37;;;;;;;2.53;0.50;;;11.70;99.90;;;;;;5057868;28;20180;-61
2023/01/12 09:06:18;;;;;;;2.17;0.40;;;11.70;99.90;;;;;;5073620;28;20180;-63
2023/01/12 09:08:45;;;;;;;2.97;0.27;;;11.70;99.90;;;;;;5073742;28;20168;-59
2023/01/12 09:11:13;;;;;;;3.27;0.60;;;11.80;99.90;;;;;;5073706;28;20191;-59
2023/01/12 09:13:38;;;;;;;3.20;0.50;;;11.80;99.90;;;;;;5073511;28;20167;-59
2023/01/12 09:16:10;;;;;;;1.40;0.50;;;11.70;99.90;;;;;;5073263;28;20248;-59
2023/01/12 09:18:36;;;;;;;1.83;0.30;;;11.80;99.90;;;;;;5073328;28;20188;-59
2023/01/12 09:21:24;;;;;;;1.17;0.20;;;11.80;99.90;;;;;;5073236;28;20299;-59
2023/01/12 09:23:50;;;;;;;1.93;0.50;;;11.80;99.90;;;;;;5072498;28;20250;-59
2023/01/12 09:26:18;;;;;;;0.70;0.20;;;11.70;99.90;;;;;;5072847;28;20173;-59
2023/01/12 09:28:45;;;;;;;1.30;0.40;;;11.80;99.90;;;;;;5073283;28;20180;-59
2023/01/12 09:31:17;;;;;;;1.47;0.20;;;11.90;99.90;;;;;;5073126;28;20631;-59
2023/01/12 09:33:43;;;;;;;2.23;0.33;;;11.80;99.90;;;;;;5072506;28;20750;-59
2023/01/12 09:36:14;;;;;;;2.30;0.27;;;11.80;99.90;;;;;;5073065;28;20651;-59
2023/01/12 09:38:41;;;;;;;0.97;0.30;;;11.80;99.90;;;;;;5072791;28;20242;-59
2023/01/12 09:41:15;;;;;;;1.27;0.30;;;11.80;99.90;;;;;;5073064;28;20208;-59
2023/01/12 09:49:21;;;;;;;2.83;0.57;;;11.80;99.90;;;;;;5072326;28;20544;-59
2023/01/12 09:52:07;;;;;;;4.97;0.47;;;11.90;99.90;;;;;;5048385;28;20213;-59
2023/01/12 09:54:34;;;;;;;2.10;0.33;;;11.80;99.90;;;;;;5061759;28;20226;-59
2023/01/12 09:57:18;;;;;;;4.93;0.30;;;11.90;99.90;;;;;;5065212;28;20173;-59
2023/01/12 09:59:58;;;;;;;2.00;0.57;;;11.90;99.90;;;;;;5072577;28;20192;-59
2023/01/12 10:02:24;;;;;;;3.10;0.47;;;;;;;;;;5072308;28;20188;-60
2023/01/12 10:04:53;;;;;;;3.03;0.33;;;11.90;99.90;;;;;;5072469;28;20267;-60
2023/01/12 10:07:18;;;;;;;3.07;0.30;;;11.90;99.90;;;;;;5071293;28;20212;-60
2023/01/12 10:09:45;;;;;;;2.10;0.50;;;11.90;99.90;;;;;;5072589;28;20207;-59
2023/01/12 10:12:33;;;;;;;5.87;0.60;;;11.90;99.90;;;;;;5072737;28;20632;-59
2023/01/12 10:15:19;;;;;;;2.07;0.40;;;11.80;99.90;;;;;;5072420;28;20191;-59
2023/01/12 10:18:01;;;;;;;0.57;0.10;;;11.70;99.90;;;;;;5072233;28;20223;-59
2023/01/12 10:20:43;;;;;;;5.93;0.57;;;11.90;99.90;;;;;;5072491;28;20208;-59
2023/01/12 10:23:09;;;;;;;1.13;0.27;;;11.90;99.90;;;;;;5072186;28;20184;-58
2023/01/12 10:26:12;;;;;;;1.00;0.20;;;12.00;99.90;;;;;;5072189;28;20184;-59
2023/01/12 10:28:43;;;;;;;4.67;0.53;;;11.90;99.90;;;;;;5072231;28;20313;-59
2023/01/12 10:31:17;;;;;;;1.40;0.30;;;11.90;99.90;;;;;;5072092;28;20229;-58
2023/01/12 10:34:00;;;;;;;3.13;0.40;;;11.90;99.90;;;;;;5072206;28;20849;-58
2023/01/12 10:36:26;;;;;;;3.57;0.50;;;11.90;99.90;;;;;;5054134;28;20550;-59
2023/01/12 10:39:02;;;;;;;4.83;0.60;;;11.90;99.90;;;;;;5071780;28;20176;-59
2023/01/12 10:41:32;;;;;;;2.53;0.50;;;12.00;99.90;;;;;;5072074;28;20689;-62
2023/01/12 10:43:57;;;;;;;2.10;0.47;;;12.00;99.90;;;;;;5072077;28;20169;-62
2023/01/12 10:46:30;;;;;;;2.03;0.50;;;12.00;99.90;;;;;;5068897;28;20704;-63
2023/01/12 10:49:22;;;;;;;4.73;0.67;;;12.00;99.90;;;;;;5067090;28;20219;-62
2023/01/12 10:51:47;;;;;;;6.40;0.70;;;12.00;99.90;;;;;;5071387;28;20192;-62
2023/01/12 10:54:22;;;;;;;3.20;0.63;;;12.00;99.90;;;;;;5058881;28;20235;-62
2023/01/12 10:56:59;;;;;;;4.90;0.70;;;12.00;99.90;;;;;;5051753;28;20161;-62
2023/01/12 10:59:28;;;;;;;5.63;0.50;;;11.90;99.90;;;;;;5059588;28;20176;-62
2023/01/12 11:02:06;;;;;;;3.63;0.70;;;12.00;99.90;;;;;;5071399;28;20215;-63
2023/01/12 11:04:39;;;;;;;4.40;0.60;;;11.80;99.90;;;;;;5071307;28;20176;-62
2023/01/12 11:07:09;;;;;;;8.67;1.17;;;11.90;99.90;;;;;;5071347;28;20181;-62
2023/01/12 11:09:35;;;;;;;4.57;0.60;;;11.80;99.90;;;;;;5071387;28;20160;-62
2023/01/12 11:12:05;;;;;;;6.03;0.80;;;11.60;99.90;;;;;;5071213;28;20164;-62
2023/01/12 11:14:36;;;;;;;7.47;1.40;;;11.70;99.90;;;;;;5071530;28;20180;-62
2023/01/12 11:17:33;;;;;;;9.60;1.50;;;11.80;99.90;;;;;;5070823;28;20710;-62
2023/01/12 11:20:00;;;;;;;7.93;1.47;;;11.70;99.90;;;;;;5070395;28;20303;-57
2023/01/12 11:22:36;;;;;;;5.83;0.67;;;11.70;99.90;;;;;;5070923;28;20186;-62
2023/01/12 11:25:22;;;;;;;7.50;1.13;;;11.80;99.90;;;;;;5070767;28;20229;-62
2023/01/12 11:28:06;;;;;;;11.83;1.43;;;11.70;99.90;;;;;;5052717;28;20176;-62
2023/01/12 11:30:46;;;;;;;6.97;0.87;;;11.60;99.90;;;;;;5071151;28;20169;-62
2023/01/12 11:33:29;;;;;;;8.67;1.17;;;11.70;99.90;;;;;;5070554;28;20230;-61
2023/01/12 11:36:00;;;;;;;5.67;1.07;;;11.70;99.90;;;;;;5069687;28;20643;-61
2023/01/12 11:38:35;;;;;;;3.33;0.73;;;11.60;99.90;;;;;;5073760;28;20236;-62
2023/01/12 11:41:06;;;;;;;4.77;0.70;;;11.60;99.90;;;;;;5077460;28;20287;-62
2023/01/12 11:43:54;;;;;;;0.97;0.30;;;11.60;99.90;;;;;;5064325;28;20703;-62
2023/01/12 11:46:38;;;;;;;1.27;0.30;;;11.50;99.90;;;;;;5086216;28;20740;-61
2023/01/12 11:49:14;;;;;;;1.10;0.10;;;11.50;99.90;;;;;;5090661;28;20164;-61
2023/01/12 11:51:40;;;;;;;3.70;0.20;;;11.50;99.90;;;;;;5090731;28;20514;-61
2023/01/12 11:54:14;;;;;;;0.50;0.10;;;11.30;99.90;;;;;;5081290;28;20180;-61
2023/01/12 11:56:54;;;;;;;1.17;0.10;;;11.50;99.90;;;;;;5070544;28;20179;-61
2023/01/12 11:59:31;;;;;;;1.63;0.13;;;11.50;99.90;;;;;;5070586;28;20172;-61
2023/01/12 12:02:05;;;;;;;2.70;0.20;;;11.50;99.90;;;;;;5070006;28;20200;-61
2023/01/12 12:04:31;;;;;;;0.57;0.00;;;11.40;99.90;;;;;;5070169;28;20259;-61
2023/01/12 12:07:19;;;;;;;1.23;0.10;;;11.50;99.90;;;;;;5070159;28;20758;-61
2023/01/12 12:09:57;;;;;;;4.57;0.30;;;11.50;99.90;;;;;;5070515;28;20165;-61
2023/01/12 12:12:42;;;;;;;6.23;0.80;;;11.50;99.90;;;;;;5069883;28;20188;-60
2023/01/12 12:15:33;;;;;;;2.47;0.40;;;11.70;99.90;;;;;;5067294;28;20168;-61
2023/01/12 12:18:07;;;;;;;2.43;0.67;;;11.50;99.90;;;;;;5065582;28;20216;-60
2023/01/12 12:20:39;;;;;;;7.70;1.00;;;11.60;99.90;;;;;;5069899;28;20211;-61
2023/01/12 12:23:26;;;;;;;8.10;1.00;;;11.70;99.90;;;;;;5069869;28;20188;-61
2023/01/12 12:26:03;;;;;;;10.37;1.03;;;11.80;99.90;;;;;;5069954;28;20665;-61
2023/01/12 12:28:55;;;;;;;6.47;1.00;;;11.90;99.90;;;;;;5069502;28;20176;-60
2023/01/12 12:31:53;;;;;;;5.90;1.10;;;11.60;99.90;;;;;;5070728;28;20168;-61
2023/01/12 12:34:30;;;;;;;6.13;1.03;;;11.80;99.90;;;;;;5074181;28;20168;-61
2023/01/12 12:37:24;;;;;;;12.00;1.87;;;11.90;99.90;;;;;;5070511;28;20171;-61
2023/01/12 12:40:05;;;;;;;12.13;1.90;;;12.00;99.90;;;;;;5072442;28;20255;-61
2023/01/12 12:45:52;;;;;;;10.17;1.70;;;12.00;99.90;;;;;;5074224;28;20210;-61
2023/01/12 12:48:40;;;;;;;20.10;2.03;;;12.10;99.90;;;;;;5073641;28;20378;-62
2023/01/12 12:51:08;;;;;;;15.90;2.10;;;12.30;99.90;;;;;;5073919;28;20172;-61
2023/01/12 12:53:42;;;;;;;11.80;1.50;;;12.20;99.90;;;;;;5072292;28;20212;-61
2023/01/12 12:56:10;;;;;;;17.30;2.50;;;12.30;99.90;;;;;;5072615;28;20233;-62
2023/01/12 12:58:47;;;;;;;16.93;2.13;;;12.30;99.90;;;;;;5073816;28;20241;-61
2023/01/12 13:01:33;;;;;;;21.27;2.77;;;12.30;99.90;;;;;;5073696;28;20674;-61
2023/01/12 13:04:06;;;;;;;10.93;1.77;;;12.30;99.90;;;;;;5073298;28;20639;-61
2023/01/12 13:06:35;;;;;;;12.23;1.67;;;12.30;99.90;;;;;;5074314;28;20183;-61
2023/01/12 13:09:20;;;;;;;16.80;2.67;;;12.30;99.90;;;;;;5074034;28;20180;-61
2023/01/12 13:11:49;;;;;;;18.17;2.43;;;12.00;99.90;;;;;;5071373;28;20183;-61
2023/01/12 13:14:30;;;;;;;21.00;2.73;;;12.40;99.90;;;;;;5072008;28;20172;-61
2023/01/12 13:16:56;;;;;;;17.20;3.20;;;12.50;99.90;;;;;;5071563;28;20277;-62
2023/01/12 13:19:40;;;;;;;17.70;3.07;;;12.30;99.90;;;;;;5071847;28;20588;-62
2023/01/12 13:22:26;;;;;;;24.97;3.47;;;12.40;99.90;;;;;;5053726;28;20302;-62
2023/01/12 13:24:54;;;;;;;17.50;3.53;;;12.20;99.90;;;;;;5071865;28;20259;-62
2023/01/12 13:27:52;;;;;;;20.93;3.20;;;12.30;99.90;;;;;;5073474;28;20706;-61
2023/01/12 13:30:20;;;;;;;25.40;4.07;;;12.20;99.90;;;;;;5073374;28;20176;-62
2023/01/12 13:33:13;;;;;;;29.60;4.37;;;12.10;99.90;;;;;;5073398;28;20168;-62
2023/01/12 13:35:39;;;;;;;23.87;4.13;;;12.10;99.90;;;;;;5055345;28;20553;-62
2023/01/12 13:38:30;;;;;;;33.17;4.07;;;12.10;99.90;;;;;;5073295;28;20193;-63
2023/01/12 13:41:12;;;;;;;24.40;4.67;;;13.40;99.90;;;;;;5073011;28;20227;-62
2023/01/12 13:43:44;;;;;;;32.27;4.60;;;12.00;99.90;;;;;;5072707;28;20214;-62
2023/01/12 13:46:19;;;;;;;13.87;2.27;;;12.00;99.90;;;;;;5073028;28;20171;-62
2023/01/12 13:48:48;;;;;;;28.97;5.07;;;12.00;99.90;;;;;;5073094;28;20176;-62